sensor_id;sensor_type;location;lat;lon;timestamp;P1;durP1;ratioP1;P2;durP2;ratioP2
77417;SDS011;66490;51.484;0.026;2023-06-14T00:02:19;6.90;;;1.90;;
77417;SDS011;66490;51.484;0.026;2023-06-14T00:05:04;7.75;;;2.13;;
77417;SDS011;66490;51.484;0.026;2023-06-14T00:07:49;7.70;;;1.70;;
77417;SDS011;66490;51.484;0.026;2023-06-14T00:10:37;6.60;;;3.03;;
77417;SDS011;66490;51.484;0.026;2023-06-14T00:13:21;7.03;;;2.30;;
77417;SDS011;66490;51.484;0.026;2023-06-14T00:16:07;6.72;;;2.72;;
77417;SDS011;66490;51.484;0.026;2023-06-14T00:18:51;7.75;;;1.90;;
77417;SDS011;66490;51.484;0.026;2023-06-14T00:21:36;7.77;;;2.10;;
77417;SDS011;66490;51.484;0.026;2023-06-14T00:24:22;8.65;;;2.60;;
77417;SDS011;66490;51.484;0.026;2023-06-14T00:27:12;9.73;;;2.70;;
77417;SDS011;66490;51.484;0.026;2023-06-14T00:29:56;7.80;;;2.38;;
77417;SDS011;66490;51.484;0.026;2023-06-14T00:32:43;13.10;;;2.58;;
77417;SDS011;66490;51.484;0.026;2023-06-14T00:35:27;8.73;;;2.47;;
77417;SDS011;66490;51.484;0.026;2023-06-14T00:38:14;8.10;;;2.17;;
77417;SDS011;66490;51.484;0.026;2023-06-14T00:40:58;8.30;;;2.33;;
77417;SDS011;66490;51.484;0.026;2023-06-14T00:43:42;10.75;;;2.35;;
77417;SDS011;66490;51.484;0.026;2023-06-14T00:46:28;7.15;;;3.08;;
77417;SDS011;66490;51.484;0.026;2023-06-14T00:49:15;8.50;;;2.53;;
77417;SDS011;66490;51.484;0.026;2023-06-14T00:52:00;9.07;;;2.13;;
77417;SDS011;66490;51.484;0.026;2023-06-14T00:54:46;8.85;;;2.70;;
77417;SDS011;66490;51.484;0.026;2023-06-14T00:57:30;6.80;;;2.30;;
77417;SDS011;66490;51.484;0.026;2023-06-14T01:00:21;7.75;;;3.45;;
77417;SDS011;66490;51.484;0.026;2023-06-14T01:03:06;8.43;;;2.80;;
77417;SDS011;66490;51.484;0.026;2023-06-14T01:11:54;8.23;;;2.88;;
77417;SDS011;66490;51.484;0.026;2023-06-14T01:14:42;7.82;;;3.10;;
77417;SDS011;66490;51.484;0.026;2023-06-14T01:17:26;7.47;;;2.63;;
77417;SDS011;66490;51.484;0.026;2023-06-14T01:20:11;8.07;;;2.30;;
77417;SDS011;66490;51.484;0.026;2023-06-14T01:22:58;9.15;;;3.00;;
77417;SDS011;66490;51.484;0.026;2023-06-14T01:25:42;9.48;;;3.17;;
77417;SDS011;66490;51.484;0.026;2023-06-14T01:28:28;8.38;;;3.20;;
77417;SDS011;66490;51.484;0.026;2023-06-14T01:31:19;7.67;;;2.60;;
77417;SDS011;66490;51.484;0.026;2023-06-14T01:34:03;8.02;;;2.80;;
77417;SDS011;66490;51.484;0.026;2023-06-14T01:36:47;9.95;;;3.33;;
77417;SDS011;66490;51.484;0.026;2023-06-14T01:39:32;11.85;;;3.20;;
77417;SDS011;66490;51.484;0.026;2023-06-14T01:42:18;8.93;;;3.33;;
77417;SDS011;66490;51.484;0.026;2023-06-14T01:45:07;8.83;;;2.40;;
77417;SDS011;66490;51.484;0.026;2023-06-14T01:47:51;8.68;;;2.97;;
77417;SDS011;66490;51.484;0.026;2023-06-14T01:50:36;8.52;;;2.40;;
77417;SDS011;66490;51.484;0.026;2023-06-14T01:53:19;10.77;;;3.13;;
77417;SDS011;66490;51.484;0.026;2023-06-14T01:56:04;10.20;;;3.63;;
77417;SDS011;66490;51.484;0.026;2023-06-14T01:58:48;9.57;;;2.97;;
77417;SDS011;66490;51.484;0.026;2023-06-14T02:01:33;9.75;;;2.70;;
77417;SDS011;66490;51.484;0.026;2023-06-14T02:04:20;6.95;;;3.72;;
77417;SDS011;66490;51.484;0.026;2023-06-14T02:07:04;12.98;;;3.50;;
77417;SDS011;66490;51.484;0.026;2023-06-14T02:09:48;10.05;;;4.10;;
77417;SDS011;66490;51.484;0.026;2023-06-14T02:12:32;9.63;;;3.37;;
77417;SDS011;66490;51.484;0.026;2023-06-14T02:15:16;7.63;;;2.70;;
77417;SDS011;66490;51.484;0.026;2023-06-14T02:18:01;13.02;;;3.97;;
77417;SDS011;66490;51.484;0.026;2023-06-14T02:20:47;10.13;;;2.95;;
77417;SDS011;66490;51.484;0.026;2023-06-14T02:23:31;8.60;;;3.60;;
77417;SDS011;66490;51.484;0.026;2023-06-14T02:26:15;8.53;;;3.13;;
77417;SDS011;66490;51.484;0.026;2023-06-14T02:28:59;8.38;;;3.40;;
77417;SDS011;66490;51.484;0.026;2023-06-14T02:31:43;8.93;;;2.78;;
77417;SDS011;66490;51.484;0.026;2023-06-14T02:34:27;9.05;;;3.05;;
77417;SDS011;66490;51.484;0.026;2023-06-14T02:37:12;9.73;;;3.00;;
77417;SDS011;66490;51.484;0.026;2023-06-14T02:39:57;11.90;;;2.63;;
77417;SDS011;66490;51.484;0.026;2023-06-14T02:42:41;11.10;;;2.95;;
77417;SDS011;66490;51.484;0.026;2023-06-14T02:45:25;8.75;;;2.85;;
77417;SDS011;66490;51.484;0.026;2023-06-14T02:48:09;10.25;;;2.97;;
77417;SDS011;66490;51.484;0.026;2023-06-14T02:50:53;8.02;;;3.10;;
77417;SDS011;66490;51.484;0.026;2023-06-14T02:53:37;11.43;;;2.67;;
77417;SDS011;66490;51.484;0.026;2023-06-14T02:56:21;9.50;;;3.20;;
77417;SDS011;66490;51.484;0.026;2023-06-14T02:59:06;9.93;;;3.65;;
77417;SDS011;66490;51.484;0.026;2023-06-14T03:01:51;8.65;;;2.92;;
77417;SDS011;66490;51.484;0.026;2023-06-14T03:04:35;14.07;;;3.40;;
77417;SDS011;66490;51.484;0.026;2023-06-14T03:07:21;10.07;;;3.40;;
77417;SDS011;66490;51.484;0.026;2023-06-14T03:10:07;11.18;;;3.17;;
77417;SDS011;66490;51.484;0.026;2023-06-14T03:12:52;12.40;;;3.88;;
77417;SDS011;66490;51.484;0.026;2023-06-14T03:15:37;9.70;;;3.28;;
77417;SDS011;66490;51.484;0.026;2023-06-14T03:18:21;12.70;;;4.18;;
77417;SDS011;66490;51.484;0.026;2023-06-14T03:21:06;9.50;;;4.00;;
77417;SDS011;66490;51.484;0.026;2023-06-14T03:23:52;11.07;;;3.70;;
77417;SDS011;66490;51.484;0.026;2023-06-14T03:26:36;13.93;;;4.00;;
77417;SDS011;66490;51.484;0.026;2023-06-14T03:29:21;11.05;;;3.80;;
77417;SDS011;66490;51.484;0.026;2023-06-14T03:32:05;10.48;;;4.50;;
77417;SDS011;66490;51.484;0.026;2023-06-14T03:34:49;9.07;;;3.77;;
77417;SDS011;66490;51.484;0.026;2023-06-14T03:37:35;13.05;;;5.22;;
77417;SDS011;66490;51.484;0.026;2023-06-14T03:40:19;11.40;;;4.95;;
77417;SDS011;66490;51.484;0.026;2023-06-14T03:43:04;14.77;;;4.28;;
77417;SDS011;66490;51.484;0.026;2023-06-14T03:45:48;10.30;;;4.05;;
77417;SDS011;66490;51.484;0.026;2023-06-14T03:48:32;11.33;;;3.60;;
77417;SDS011;66490;51.484;0.026;2023-06-14T03:51:16;12.88;;;4.35;;
77417;SDS011;66490;51.484;0.026;2023-06-14T03:54:01;12.00;;;4.57;;
77417;SDS011;66490;51.484;0.026;2023-06-14T03:56:45;11.20;;;3.97;;
77417;SDS011;66490;51.484;0.026;2023-06-14T03:59:29;8.18;;;3.45;;
77417;SDS011;66490;51.484;0.026;2023-06-14T04:02:13;9.40;;;4.30;;
77417;SDS011;66490;51.484;0.026;2023-06-14T04:05:02;14.23;;;4.03;;
77417;SDS011;66490;51.484;0.026;2023-06-14T04:07:46;11.20;;;4.60;;
77417;SDS011;66490;51.484;0.026;2023-06-14T04:10:33;11.10;;;4.70;;
77417;SDS011;66490;51.484;0.026;2023-06-14T04:13:17;7.57;;;4.25;;
77417;SDS011;66490;51.484;0.026;2023-06-14T04:16:01;10.47;;;4.67;;
77417;SDS011;66490;51.484;0.026;2023-06-14T04:18:45;10.77;;;4.72;;
77417;SDS011;66490;51.484;0.026;2023-06-14T04:21:31;12.00;;;5.32;;
77417;SDS011;66490;51.484;0.026;2023-06-14T04:24:18;11.48;;;4.32;;
77417;SDS011;66490;51.484;0.026;2023-06-14T04:27:02;13.23;;;5.35;;
77417;SDS011;66490;51.484;0.026;2023-06-14T04:29:46;10.97;;;4.07;;
77417;SDS011;66490;51.484;0.026;2023-06-14T04:32:37;10.07;;;4.50;;
77417;SDS011;66490;51.484;0.026;2023-06-14T04:35:22;9.75;;;4.57;;
77417;SDS011;66490;51.484;0.026;2023-06-14T04:38:09;13.02;;;4.88;;
77417;SDS011;66490;51.484;0.026;2023-06-14T04:40:53;10.90;;;4.22;;
77417;SDS011;66490;51.484;0.026;2023-06-14T04:43:37;10.53;;;4.87;;
77417;SDS011;66490;51.484;0.026;2023-06-14T04:46:22;11.95;;;5.00;;
77417;SDS011;66490;51.484;0.026;2023-06-14T04:49:06;10.77;;;4.97;;
77417;SDS011;66490;51.484;0.026;2023-06-14T04:51:50;9.68;;;4.97;;
77417;SDS011;66490;51.484;0.026;2023-06-14T04:54:45;13.43;;;5.30;;
77417;SDS011;66490;51.484;0.026;2023-06-14T04:57:30;9.57;;;4.23;;
77417;SDS011;66490;51.484;0.026;2023-06-14T05:00:15;12.88;;;5.00;;
77417;SDS011;66490;51.484;0.026;2023-06-14T05:03:02;13.95;;;4.38;;
77417;SDS011;66490;51.484;0.026;2023-06-14T05:05:46;11.13;;;4.85;;
77417;SDS011;66490;51.484;0.026;2023-06-14T05:08:30;10.15;;;5.93;;
77417;SDS011;66490;51.484;0.026;2023-06-14T05:11:14;10.30;;;4.53;;
77417;SDS011;66490;51.484;0.026;2023-06-14T05:13:58;14.00;;;4.38;;
77417;SDS011;66490;51.484;0.026;2023-06-14T05:16:45;11.85;;;4.53;;
77417;SDS011;66490;51.484;0.026;2023-06-14T05:19:31;10.98;;;4.88;;
77417;SDS011;66490;51.484;0.026;2023-06-14T05:22:16;13.10;;;5.72;;
77417;SDS011;66490;51.484;0.026;2023-06-14T05:25:01;17.97;;;5.90;;
77417;SDS011;66490;51.484;0.026;2023-06-14T05:27:45;12.25;;;4.10;;
77417;SDS011;66490;51.484;0.026;2023-06-14T05:30:29;11.77;;;5.35;;
77417;SDS011;66490;51.484;0.026;2023-06-14T05:33:14;8.63;;;4.47;;
77417;SDS011;66490;51.484;0.026;2023-06-14T05:35:58;11.43;;;5.35;;
77417;SDS011;66490;51.484;0.026;2023-06-14T05:38:42;15.50;;;4.67;;
77417;SDS011;66490;51.484;0.026;2023-06-14T05:41:32;12.13;;;4.70;;
77417;SDS011;66490;51.484;0.026;2023-06-14T05:44:16;11.10;;;4.72;;
77417;SDS011;66490;51.484;0.026;2023-06-14T05:47:00;11.55;;;4.20;;
77417;SDS011;66490;51.484;0.026;2023-06-14T05:49:44;13.48;;;4.90;;
77417;SDS011;66490;51.484;0.026;2023-06-14T05:52:28;16.27;;;5.03;;
77417;SDS011;66490;51.484;0.026;2023-06-14T05:55:13;13.10;;;4.68;;
77417;SDS011;66490;51.484;0.026;2023-06-14T05:57:57;16.95;;;5.60;;
77417;SDS011;66490;51.484;0.026;2023-06-14T06:00:41;12.93;;;5.20;;
77417;SDS011;66490;51.484;0.026;2023-06-14T06:03:28;11.68;;;5.63;;
77417;SDS011;66490;51.484;0.026;2023-06-14T06:06:13;13.93;;;5.10;;
77417;SDS011;66490;51.484;0.026;2023-06-14T06:08:57;13.77;;;4.45;;
77417;SDS011;66490;51.484;0.026;2023-06-14T06:11:41;16.23;;;5.78;;
77417;SDS011;66490;51.484;0.026;2023-06-14T06:14:25;18.70;;;5.03;;
77417;SDS011;66490;51.484;0.026;2023-06-14T06:17:09;10.95;;;5.03;;
77417;SDS011;66490;51.484;0.026;2023-06-14T06:19:56;15.53;;;5.10;;
77417;SDS011;66490;51.484;0.026;2023-06-14T06:22:40;12.45;;;4.63;;
77417;SDS011;66490;51.484;0.026;2023-06-14T06:25:27;13.95;;;4.80;;
77417;SDS011;66490;51.484;0.026;2023-06-14T06:28:13;13.95;;;5.47;;
77417;SDS011;66490;51.484;0.026;2023-06-14T06:31:00;17.45;;;6.95;;
77417;SDS011;66490;51.484;0.026;2023-06-14T06:33:44;24.20;;;7.87;;
77417;SDS011;66490;51.484;0.026;2023-06-14T06:36:30;18.30;;;6.93;;
77417;SDS011;66490;51.484;0.026;2023-06-14T06:39:17;14.57;;;5.45;;
77417;SDS011;66490;51.484;0.026;2023-06-14T06:42:02;16.70;;;5.32;;
77417;SDS011;66490;51.484;0.026;2023-06-14T06:44:46;11.02;;;4.70;;
77417;SDS011;66490;51.484;0.026;2023-06-14T06:47:30;14.03;;;5.20;;
77417;SDS011;66490;51.484;0.026;2023-06-14T06:50:15;14.73;;;5.30;;
77417;SDS011;66490;51.484;0.026;2023-06-14T06:52:59;19.85;;;5.68;;
77417;SDS011;66490;51.484;0.026;2023-06-14T06:55:43;10.70;;;4.70;;
77417;SDS011;66490;51.484;0.026;2023-06-14T06:58:27;13.45;;;5.68;;
77417;SDS011;66490;51.484;0.026;2023-06-14T07:01:14;12.97;;;4.97;;
77417;SDS011;66490;51.484;0.026;2023-06-14T07:03:58;14.13;;;5.88;;
77417;SDS011;66490;51.484;0.026;2023-06-14T07:06:42;14.50;;;5.40;;
77417;SDS011;66490;51.484;0.026;2023-06-14T07:09:26;15.02;;;5.78;;
77417;SDS011;66490;51.484;0.026;2023-06-14T07:12:10;11.95;;;5.18;;
77417;SDS011;66490;51.484;0.026;2023-06-14T07:14:55;13.20;;;5.43;;
77417;SDS011;66490;51.484;0.026;2023-06-14T07:17:39;16.73;;;6.10;;
77417;SDS011;66490;51.484;0.026;2023-06-14T07:20:26;15.23;;;5.80;;
77417;SDS011;66490;51.484;0.026;2023-06-14T07:23:10;14.88;;;5.53;;
77417;SDS011;66490;51.484;0.026;2023-06-14T07:25:54;13.88;;;5.72;;
77417;SDS011;66490;51.484;0.026;2023-06-14T07:28:39;11.03;;;4.63;;
77417;SDS011;66490;51.484;0.026;2023-06-14T07:31:29;13.45;;;6.10;;
77417;SDS011;66490;51.484;0.026;2023-06-14T07:34:14;10.93;;;5.03;;
77417;SDS011;66490;51.484;0.026;2023-06-14T07:36:59;15.75;;;5.55;;
77417;SDS011;66490;51.484;0.026;2023-06-14T07:39:43;14.90;;;5.78;;
77417;SDS011;66490;51.484;0.026;2023-06-14T07:42:27;13.87;;;5.07;;
77417;SDS011;66490;51.484;0.026;2023-06-14T07:45:12;16.13;;;6.03;;
77417;SDS011;66490;51.484;0.026;2023-06-14T07:47:56;19.60;;;6.25;;
77417;SDS011;66490;51.484;0.026;2023-06-14T07:50:40;12.43;;;5.65;;
77417;SDS011;66490;51.484;0.026;2023-06-14T07:53:24;15.55;;;6.13;;
77417;SDS011;66490;51.484;0.026;2023-06-14T07:56:09;16.07;;;5.57;;
77417;SDS011;66490;51.484;0.026;2023-06-14T07:58:53;19.88;;;6.25;;
77417;SDS011;66490;51.484;0.026;2023-06-14T08:01:37;14.35;;;5.15;;
77417;SDS011;66490;51.484;0.026;2023-06-14T08:04:23;14.93;;;6.15;;
77417;SDS011;66490;51.484;0.026;2023-06-14T08:07:08;17.55;;;5.85;;
77417;SDS011;66490;51.484;0.026;2023-06-14T08:09:52;15.23;;;5.73;;
77417;SDS011;66490;51.484;0.026;2023-06-14T08:12:36;14.50;;;5.63;;
77417;SDS011;66490;51.484;0.026;2023-06-14T08:15:20;13.65;;;5.45;;
77417;SDS011;66490;51.484;0.026;2023-06-14T08:18:04;15.60;;;5.57;;
77417;SDS011;66490;51.484;0.026;2023-06-14T08:20:48;19.25;;;5.80;;
77417;SDS011;66490;51.484;0.026;2023-06-14T08:23:36;13.90;;;5.67;;
77417;SDS011;66490;51.484;0.026;2023-06-14T08:26:20;16.73;;;4.65;;
77417;SDS011;66490;51.484;0.026;2023-06-14T08:29:04;14.10;;;5.50;;
77417;SDS011;66490;51.484;0.026;2023-06-14T08:31:49;16.48;;;5.45;;
77417;SDS011;66490;51.484;0.026;2023-06-14T08:34:33;13.40;;;5.18;;
77417;SDS011;66490;51.484;0.026;2023-06-14T08:37:17;17.67;;;5.67;;
77417;SDS011;66490;51.484;0.026;2023-06-14T08:40:04;16.75;;;5.65;;
77417;SDS011;66490;51.484;0.026;2023-06-14T08:42:51;16.17;;;6.25;;
77417;SDS011;66490;51.484;0.026;2023-06-14T08:45:36;15.90;;;5.78;;
77417;SDS011;66490;51.484;0.026;2023-06-14T08:48:20;15.45;;;5.70;;
77417;SDS011;66490;51.484;0.026;2023-06-14T08:51:09;17.13;;;5.40;;
77417;SDS011;66490;51.484;0.026;2023-06-14T08:54:03;10.70;;;5.88;;
77417;SDS011;66490;51.484;0.026;2023-06-14T08:56:48;16.02;;;6.20;;
77417;SDS011;66490;51.484;0.026;2023-06-14T08:59:39;16.85;;;4.95;;
77417;SDS011;66490;51.484;0.026;2023-06-14T09:02:29;12.35;;;4.70;;
77417;SDS011;66490;51.484;0.026;2023-06-14T09:05:13;11.47;;;4.73;;
77417;SDS011;66490;51.484;0.026;2023-06-14T09:08:00;13.98;;;4.95;;
77417;SDS011;66490;51.484;0.026;2023-06-14T09:10:47;16.67;;;5.93;;
77417;SDS011;66490;51.484;0.026;2023-06-14T09:13:31;10.18;;;4.50;;
77417;SDS011;66490;51.484;0.026;2023-06-14T09:16:15;15.55;;;4.78;;
77417;SDS011;66490;51.484;0.026;2023-06-14T09:19:02;16.03;;;5.80;;
77417;SDS011;66490;51.484;0.026;2023-06-14T09:21:49;16.27;;;5.63;;
77417;SDS011;66490;51.484;0.026;2023-06-14T09:24:33;11.40;;;5.40;;
77417;SDS011;66490;51.484;0.026;2023-06-14T09:27:20;11.77;;;5.25;;
77417;SDS011;66490;51.484;0.026;2023-06-14T09:30:04;12.43;;;5.40;;
77417;SDS011;66490;51.484;0.026;2023-06-14T09:32:49;12.30;;;4.77;;
77417;SDS011;66490;51.484;0.026;2023-06-14T09:35:36;17.15;;;5.40;;
77417;SDS011;66490;51.484;0.026;2023-06-14T09:38:21;13.77;;;6.07;;
77417;SDS011;66490;51.484;0.026;2023-06-14T09:41:07;12.10;;;4.85;;
77417;SDS011;66490;51.484;0.026;2023-06-14T09:43:51;14.82;;;5.63;;
77417;SDS011;66490;51.484;0.026;2023-06-14T09:46:35;14.77;;;5.10;;
77417;SDS011;66490;51.484;0.026;2023-06-14T09:49:19;16.90;;;5.60;;
77417;SDS011;66490;51.484;0.026;2023-06-14T09:52:04;13.73;;;5.05;;
77417;SDS011;66490;51.484;0.026;2023-06-14T09:54:51;11.75;;;4.68;;
77417;SDS011;66490;51.484;0.026;2023-06-14T09:57:38;10.77;;;4.82;;
77417;SDS011;66490;51.484;0.026;2023-06-14T10:00:24;14.10;;;5.40;;
77417;SDS011;66490;51.484;0.026;2023-06-14T10:05:57;12.52;;;5.65;;
77417;SDS011;66490;51.484;0.026;2023-06-14T10:08:44;12.98;;;5.68;;
77417;SDS011;66490;51.484;0.026;2023-06-14T10:11:31;17.17;;;5.88;;
77417;SDS011;66490;51.484;0.026;2023-06-14T10:14:15;13.67;;;5.80;;
77417;SDS011;66490;51.484;0.026;2023-06-14T10:17:03;13.60;;;5.68;;
77417;SDS011;66490;51.484;0.026;2023-06-14T10:19:50;13.23;;;6.10;;
77417;SDS011;66490;51.484;0.026;2023-06-14T10:22:38;12.15;;;5.97;;
77417;SDS011;66490;51.484;0.026;2023-06-14T10:25:28;14.35;;;5.85;;
77417;SDS011;66490;51.484;0.026;2023-06-14T10:28:18;13.73;;;5.27;;
77417;SDS011;66490;51.484;0.026;2023-06-14T10:31:07;11.30;;;6.05;;
77417;SDS011;66490;51.484;0.026;2023-06-14T10:36:42;11.15;;;6.53;;
77417;SDS011;66490;51.484;0.026;2023-06-14T10:39:26;11.60;;;5.72;;
77417;SDS011;66490;51.484;0.026;2023-06-14T10:42:10;13.60;;;5.40;;
77417;SDS011;66490;51.484;0.026;2023-06-14T10:44:55;14.77;;;5.68;;
77417;SDS011;66490;51.484;0.026;2023-06-14T10:47:39;11.07;;;5.18;;
77417;SDS011;66490;51.484;0.026;2023-06-14T10:50:29;10.65;;;4.93;;
77417;SDS011;66490;51.484;0.026;2023-06-14T10:53:23;9.95;;;5.45;;
77417;SDS011;66490;51.484;0.026;2023-06-14T10:59:19;16.23;;;6.03;;
77417;SDS011;66490;51.484;0.026;2023-06-14T11:05:21;14.52;;;5.85;;
77417;SDS011;66490;51.484;0.026;2023-06-14T11:11:10;11.73;;;5.73;;
77417;SDS011;66490;51.484;0.026;2023-06-14T11:13:54;13.52;;;7.18;;
77417;SDS011;66490;51.484;0.026;2023-06-14T11:16:38;12.52;;;5.82;;
77417;SDS011;66490;51.484;0.026;2023-06-14T11:19:25;12.23;;;5.88;;
77417;SDS011;66490;51.484;0.026;2023-06-14T11:22:12;11.57;;;5.43;;
77417;SDS011;66490;51.484;0.026;2023-06-14T11:24:58;8.43;;;4.90;;
77417;SDS011;66490;51.484;0.026;2023-06-14T11:27:48;9.55;;;4.85;;
77417;SDS011;66490;51.484;0.026;2023-06-14T11:30:33;11.93;;;5.85;;
77417;SDS011;66490;51.484;0.026;2023-06-14T11:33:24;11.60;;;5.45;;
77417;SDS011;66490;51.484;0.026;2023-06-14T11:36:09;13.57;;;6.32;;
77417;SDS011;66490;51.484;0.026;2023-06-14T11:39:03;9.97;;;5.33;;
77417;SDS011;66490;51.484;0.026;2023-06-14T11:41:47;11.65;;;5.72;;
77417;SDS011;66490;51.484;0.026;2023-06-14T11:44:37;9.05;;;5.75;;
77417;SDS011;66490;51.484;0.026;2023-06-14T11:47:21;11.95;;;5.30;;
77417;SDS011;66490;51.484;0.026;2023-06-14T11:50:13;13.00;;;6.00;;
77417;SDS011;66490;51.484;0.026;2023-06-14T11:53:01;13.20;;;5.53;;
77417;SDS011;66490;51.484;0.026;2023-06-14T11:55:58;11.80;;;5.43;;
77417;SDS011;66490;51.484;0.026;2023-06-14T11:58:43;13.00;;;5.40;;
77417;SDS011;66490;51.484;0.026;2023-06-14T12:01:35;10.40;;;5.93;;
77417;SDS011;66490;51.484;0.026;2023-06-14T12:04:31;9.52;;;5.22;;
77417;SDS011;66490;51.484;0.026;2023-06-14T12:07:18;10.47;;;5.70;;
77417;SDS011;66490;51.484;0.026;2023-06-14T12:10:04;11.73;;;4.88;;
77417;SDS011;66490;51.484;0.026;2023-06-14T12:12:51;10.40;;;5.60;;
77417;SDS011;66490;51.484;0.026;2023-06-14T12:15:40;13.10;;;5.68;;
77417;SDS011;66490;51.484;0.026;2023-06-14T12:18:34;13.70;;;5.82;;
77417;SDS011;66490;51.484;0.026;2023-06-14T12:21:18;17.93;;;5.90;;
77417;SDS011;66490;51.484;0.026;2023-06-14T12:24:07;7.88;;;4.93;;
77417;SDS011;66490;51.484;0.026;2023-06-14T12:26:51;9.25;;;5.05;;
77417;SDS011;66490;51.484;0.026;2023-06-14T12:29:36;9.95;;;5.07;;
77417;SDS011;66490;51.484;0.026;2023-06-14T12:32:22;12.07;;;5.47;;
77417;SDS011;66490;51.484;0.026;2023-06-14T12:35:06;10.20;;;5.20;;
77417;SDS011;66490;51.484;0.026;2023-06-14T12:37:50;12.95;;;6.90;;
77417;SDS011;66490;51.484;0.026;2023-06-14T12:40:35;12.48;;;5.30;;
77417;SDS011;66490;51.484;0.026;2023-06-14T12:43:21;9.32;;;4.78;;
77417;SDS011;66490;51.484;0.026;2023-06-14T12:46:05;9.05;;;5.18;;
77417;SDS011;66490;51.484;0.026;2023-06-14T12:48:50;10.90;;;5.57;;
77417;SDS011;66490;51.484;0.026;2023-06-14T12:51:34;10.52;;;5.35;;
77417;SDS011;66490;51.484;0.026;2023-06-14T12:54:18;9.50;;;5.43;;
77417;SDS011;66490;51.484;0.026;2023-06-14T12:57:05;8.43;;;4.95;;
77417;SDS011;66490;51.484;0.026;2023-06-14T12:59:56;11.57;;;4.72;;
77417;SDS011;66490;51.484;0.026;2023-06-14T13:02:41;9.90;;;4.50;;
77417;SDS011;66490;51.484;0.026;2023-06-14T13:05:24;12.65;;;5.20;;
77417;SDS011;66490;51.484;0.026;2023-06-14T13:08:08;10.15;;;5.55;;
77417;SDS011;66490;51.484;0.026;2023-06-14T13:10:55;11.35;;;5.15;;
77417;SDS011;66490;51.484;0.026;2023-06-14T13:14:00;11.70;;;5.10;;
77417;SDS011;66490;51.484;0.026;2023-06-14T13:16:45;10.47;;;4.70;;
77417;SDS011;66490;51.484;0.026;2023-06-14T13:19:29;7.85;;;4.60;;
77417;SDS011;66490;51.484;0.026;2023-06-14T13:22:14;14.02;;;5.63;;
77417;SDS011;66490;51.484;0.026;2023-06-14T13:24:58;8.63;;;4.63;;
77417;SDS011;66490;51.484;0.026;2023-06-14T13:27:42;11.98;;;5.30;;
77417;SDS011;66490;51.484;0.026;2023-06-14T13:30:29;10.13;;;4.90;;
77417;SDS011;66490;51.484;0.026;2023-06-14T13:33:16;10.43;;;5.55;;
77417;SDS011;66490;51.484;0.026;2023-06-14T13:36:00;8.25;;;4.50;;
77417;SDS011;66490;51.484;0.026;2023-06-14T13:38:48;12.10;;;4.97;;
77417;SDS011;66490;51.484;0.026;2023-06-14T13:41:33;8.60;;;4.45;;
77417;SDS011;66490;51.484;0.026;2023-06-14T13:44:18;8.60;;;5.80;;
77417;SDS011;66490;51.484;0.026;2023-06-14T13:47:05;10.88;;;5.95;;
77417;SDS011;66490;51.484;0.026;2023-06-14T13:49:49;10.52;;;5.50;;
77417;SDS011;66490;51.484;0.026;2023-06-14T13:52:33;9.70;;;5.28;;
77417;SDS011;66490;51.484;0.026;2023-06-14T13:55:18;10.63;;;5.00;;
77417;SDS011;66490;51.484;0.026;2023-06-14T13:58:02;8.97;;;4.87;;
77417;SDS011;66490;51.484;0.026;2023-06-14T14:01:04;9.35;;;5.10;;
77417;SDS011;66490;51.484;0.026;2023-06-14T14:03:48;10.52;;;5.50;;
77417;SDS011;66490;51.484;0.026;2023-06-14T14:06:33;8.45;;;5.30;;
77417;SDS011;66490;51.484;0.026;2023-06-14T14:09:17;11.63;;;5.80;;
77417;SDS011;66490;51.484;0.026;2023-06-14T14:12:01;12.17;;;5.40;;
77417;SDS011;66490;51.484;0.026;2023-06-14T14:14:53;9.30;;;5.35;;
77417;SDS011;66490;51.484;0.026;2023-06-14T14:17:40;9.35;;;5.18;;
77417;SDS011;66490;51.484;0.026;2023-06-14T14:20:24;11.07;;;5.22;;
77417;SDS011;66490;51.484;0.026;2023-06-14T14:23:08;12.60;;;5.35;;
77417;SDS011;66490;51.484;0.026;2023-06-14T14:25:53;11.37;;;4.77;;
77417;SDS011;66490;51.484;0.026;2023-06-14T14:28:37;8.57;;;4.75;;
77417;SDS011;66490;51.484;0.026;2023-06-14T14:31:21;8.98;;;4.25;;
77417;SDS011;66490;51.484;0.026;2023-06-14T14:34:05;11.32;;;4.88;;
77417;SDS011;66490;51.484;0.026;2023-06-14T14:36:48;9.43;;;4.93;;
77417;SDS011;66490;51.484;0.026;2023-06-14T14:39:36;10.60;;;4.60;;
77417;SDS011;66490;51.484;0.026;2023-06-14T14:42:20;9.48;;;5.10;;
77417;SDS011;66490;51.484;0.026;2023-06-14T14:45:04;10.38;;;4.78;;
77417;SDS011;66490;51.484;0.026;2023-06-14T14:47:49;9.00;;;4.50;;
77417;SDS011;66490;51.484;0.026;2023-06-14T14:50:33;9.60;;;4.90;;
77417;SDS011;66490;51.484;0.026;2023-06-14T14:53:17;8.70;;;5.00;;
77417;SDS011;66490;51.484;0.026;2023-06-14T14:56:01;10.15;;;4.63;;
77417;SDS011;66490;51.484;0.026;2023-06-14T14:58:45;11.48;;;5.25;;
77417;SDS011;66490;51.484;0.026;2023-06-14T15:01:30;13.50;;;5.57;;
77417;SDS011;66490;51.484;0.026;2023-06-14T15:04:14;10.48;;;4.40;;
77417;SDS011;66490;51.484;0.026;2023-06-14T15:06:58;15.67;;;4.73;;
77417;SDS011;66490;51.484;0.026;2023-06-14T15:09:42;9.52;;;4.57;;
77417;SDS011;66490;51.484;0.026;2023-06-14T15:12:26;10.00;;;4.75;;
77417;SDS011;66490;51.484;0.026;2023-06-14T15:15:10;7.78;;;4.47;;
77417;SDS011;66490;51.484;0.026;2023-06-14T15:17:54;9.20;;;5.13;;
77417;SDS011;66490;51.484;0.026;2023-06-14T15:20:38;8.40;;;4.50;;
77417;SDS011;66490;51.484;0.026;2023-06-14T15:23:24;7.25;;;4.20;;
77417;SDS011;66490;51.484;0.026;2023-06-14T15:26:08;10.05;;;4.28;;
77417;SDS011;66490;51.484;0.026;2023-06-14T15:28:52;10.10;;;5.15;;
77417;SDS011;66490;51.484;0.026;2023-06-14T15:31:36;7.63;;;4.65;;
77417;SDS011;66490;51.484;0.026;2023-06-14T15:34:20;15.30;;;4.90;;
77417;SDS011;66490;51.484;0.026;2023-06-14T15:37:05;6.70;;;4.47;;
77417;SDS011;66490;51.484;0.026;2023-06-14T15:39:49;7.10;;;4.47;;
77417;SDS011;66490;51.484;0.026;2023-06-14T15:42:33;8.32;;;3.67;;
77417;SDS011;66490;51.484;0.026;2023-06-14T15:45:18;6.97;;;4.18;;
77417;SDS011;66490;51.484;0.026;2023-06-14T15:48:02;13.77;;;4.83;;
77417;SDS011;66490;51.484;0.026;2023-06-14T15:50:48;8.13;;;4.22;;
77417;SDS011;66490;51.484;0.026;2023-06-14T15:53:32;9.38;;;4.70;;
77417;SDS011;66490;51.484;0.026;2023-06-14T15:56:18;7.47;;;3.70;;
77417;SDS011;66490;51.484;0.026;2023-06-14T15:59:02;7.65;;;4.18;;
77417;SDS011;66490;51.484;0.026;2023-06-14T16:02:04;10.03;;;4.03;;
77417;SDS011;66490;51.484;0.026;2023-06-14T16:04:50;7.45;;;3.60;;
77417;SDS011;66490;51.484;0.026;2023-06-14T16:07:35;10.63;;;4.38;;
77417;SDS011;66490;51.484;0.026;2023-06-14T16:10:19;7.93;;;4.13;;
77417;SDS011;66490;51.484;0.026;2023-06-14T16:13:03;9.13;;;4.30;;
77417;SDS011;66490;51.484;0.026;2023-06-14T16:15:47;9.37;;;4.43;;
77417;SDS011;66490;51.484;0.026;2023-06-14T16:18:31;8.07;;;3.97;;
77417;SDS011;66490;51.484;0.026;2023-06-14T16:21:15;7.15;;;4.30;;
77417;SDS011;66490;51.484;0.026;2023-06-14T16:24:03;7.18;;;4.00;;
77417;SDS011;66490;51.484;0.026;2023-06-14T16:26:47;8.93;;;4.25;;
77417;SDS011;66490;51.484;0.026;2023-06-14T16:29:32;8.70;;;3.90;;
77417;SDS011;66490;51.484;0.026;2023-06-14T16:32:16;8.48;;;3.60;;
77417;SDS011;66490;51.484;0.026;2023-06-14T16:35:00;7.95;;;4.00;;
77417;SDS011;66490;51.484;0.026;2023-06-14T16:37:44;8.82;;;3.38;;
77417;SDS011;66490;51.484;0.026;2023-06-14T16:40:30;8.45;;;4.32;;
77417;SDS011;66490;51.484;0.026;2023-06-14T16:43:17;8.50;;;3.93;;
77417;SDS011;66490;51.484;0.026;2023-06-14T16:46:04;9.13;;;3.67;;
77417;SDS011;66490;51.484;0.026;2023-06-14T16:48:56;8.25;;;3.83;;